createdAt,value
2022-08-26T00:03:18.188Z,20.76
2022-08-26T00:08:21.398Z,20.70
2022-08-26T00:13:23.358Z,20.62
2022-08-26T00:18:25.296Z,20.53
2022-08-26T00:23:28.855Z,20.51
2022-08-26T00:28:31.384Z,20.45
2022-08-26T00:33:33.489Z,20.31
2022-08-26T00:38:37.857Z,20.28
2022-08-26T00:43:46.152Z,20.21
2022-08-26T00:48:53.817Z,20.17
2022-08-26T00:53:59.685Z,20.10
2022-08-26T00:59:06.529Z,20.01
2022-08-26T01:04:10.288Z,19.96
2022-08-26T01:09:12.778Z,19.82
2022-08-26T01:14:15.111Z,19.74
2022-08-26T01:19:33.869Z,19.73
2022-08-26T01:24:36.481Z,19.62
2022-08-26T01:29:39.629Z,19.54
2022-08-26T01:34:41.884Z,19.62
2022-08-26T01:39:46.092Z,19.57
2022-08-26T01:44:55.611Z,19.61
2022-08-26T01:50:00.908Z,19.55
2022-08-26T01:55:05.981Z,19.47
2022-08-26T02:00:13.341Z,19.46
2022-08-26T02:05:22.081Z,19.45
2022-08-26T02:10:24.313Z,19.45
2022-08-26T02:15:28.442Z,19.43
2022-08-26T02:20:30.988Z,19.45
2022-08-26T02:25:50.038Z,19.50
2022-08-26T02:30:51.989Z,19.45
2022-08-26T02:35:54.253Z,19.42
2022-08-26T02:40:56.421Z,19.38
2022-08-26T02:46:00.059Z,19.32
2022-08-26T02:51:03.893Z,19.27
2022-08-26T02:56:08.556Z,19.29
2022-08-26T03:01:32.433Z,19.22
2022-08-26T03:06:34.661Z,19.00
2022-08-26T03:11:40.056Z,19.10
2022-08-26T03:16:42.174Z,19.00
2022-08-26T03:21:44.489Z,19.01
2022-08-26T03:26:52.017Z,19.02
2022-08-26T03:31:55.322Z,19.09
2022-08-26T03:36:57.426Z,19.08
2022-08-26T03:41:59.813Z,19.09
2022-08-26T03:47:02.040Z,18.96
2022-08-26T03:52:05.231Z,19.09
2022-08-26T03:57:09.102Z,19.30
2022-08-26T04:02:11.476Z,19.46
2022-08-26T04:07:13.860Z,19.67
2022-08-26T04:12:17.495Z,19.88
2022-08-26T04:17:20.174Z,20.06
2022-08-26T04:22:26.925Z,20.35
2022-08-26T04:27:31.502Z,20.47
2022-08-26T04:32:33.494Z,20.85
2022-08-26T04:37:35.924Z,21.11
2022-08-26T04:42:37.904Z,21.17
2022-08-26T04:47:40.175Z,21.34
2022-08-26T04:52:43.465Z,21.19
2022-08-26T04:57:45.585Z,21.01
2022-08-26T05:02:47.724Z,21.09
2022-08-26T05:07:53.544Z,21.25
2022-08-26T05:12:55.754Z,21.23
2022-08-26T05:17:59.420Z,21.46
2022-08-26T05:23:03.064Z,21.72
2022-08-26T05:28:05.129Z,21.95
2022-08-26T05:33:09.167Z,22.11
2022-08-26T05:38:14.497Z,22.23
2022-08-26T05:43:17.232Z,22.41
2022-08-26T05:48:22.657Z,22.50
2022-08-26T05:53:26.374Z,22.75
2022-08-26T05:58:28.505Z,22.66
2022-08-26T06:03:31.663Z,22.88
2022-08-26T06:08:34.551Z,23.02
2022-08-26T06:13:38.015Z,23.31
2022-08-26T06:18:42.633Z,23.32
2022-08-26T06:24:04.548Z,23.38
2022-08-26T06:29:07.545Z,23.29
2022-08-26T06:34:11.066Z,23.38
2022-08-26T06:39:14.806Z,23.50
2022-08-26T06:44:17.633Z,23.65
2022-08-26T06:49:27.423Z,23.54
2022-08-26T06:54:32.546Z,23.53
2022-08-26T06:59:34.488Z,23.76
2022-08-26T07:04:36.512Z,23.94
2022-08-26T07:09:38.956Z,23.82
2022-08-26T07:14:47.287Z,23.94
2022-08-26T07:19:49.786Z,23.90
2022-08-26T07:24:51.781Z,24.20
2022-08-26T07:29:57.164Z,24.20
2022-08-26T07:35:00.265Z,24.19
2022-08-26T07:40:07.270Z,24.32
2022-08-26T07:45:11.717Z,24.19
2022-08-26T07:50:14.545Z,24.36
2022-08-26T07:55:18.556Z,24.02
2022-08-26T08:00:21.904Z,24.11
2022-08-26T08:05:33.280Z,24.44
2022-08-26T08:10:36.764Z,24.56
2022-08-26T08:15:39.264Z,24.83
2022-08-26T08:20:44.667Z,25.01
2022-08-26T08:25:49.660Z,25.04
2022-08-26T08:30:53.170Z,25.63
2022-08-26T08:35:55.604Z,25.71
2022-08-26T08:40:57.921Z,25.76
2022-08-26T08:46:10.729Z,26.08
2022-08-26T08:51:22.235Z,26.62
2022-08-26T08:56:32.306Z,26.87
2022-08-26T09:01:53.855Z,27.10
2022-08-26T09:06:59.046Z,27.11
2022-08-26T09:12:02.161Z,27.50
2022-08-26T09:17:30.460Z,27.82
2022-08-26T09:22:35.373Z,28.31
2022-08-26T09:27:46.370Z,28.32
2022-08-26T09:33:10.372Z,28.48
2022-08-26T09:38:26.865Z,28.86
2022-08-26T09:43:30.612Z,29.01
2022-08-26T09:48:40.563Z,28.92
2022-08-26T09:53:55.072Z,29.56
2022-08-26T09:58:57.745Z,29.74
2022-08-26T10:04:04.231Z,29.65
2022-08-26T10:09:10.890Z,29.73
2022-08-26T10:14:21.937Z,29.75
2022-08-26T10:19:56.965Z,30.02
2022-08-26T10:25:03.285Z,30.20
2022-08-26T10:30:10.300Z,29.95
2022-08-26T10:35:13.712Z,29.97
2022-08-26T10:40:25.370Z,30.24
2022-08-26T10:45:30.217Z,30.24
2022-08-26T10:50:38.644Z,30.45
2022-08-26T10:56:15.907Z,30.71
2022-08-26T11:01:47.215Z,30.76
2022-08-26T11:07:31.794Z,30.92
2022-08-26T11:12:37.314Z,31.52
2022-08-26T11:17:44.496Z,31.82
2022-08-26T11:22:47.788Z,31.51
2022-08-26T11:27:51.693Z,31.87
2022-08-26T11:32:56.193Z,31.67
2022-08-26T11:38:20.660Z,31.38
2022-08-26T11:43:26.036Z,31.61
2022-08-26T11:48:36.893Z,32.28
2022-08-26T11:53:41.309Z,32.19
2022-08-26T11:58:45.289Z,32.00
2022-08-26T12:03:49.215Z,31.80
2022-08-26T12:08:52.536Z,32.32
2022-08-26T12:13:59.150Z,32.46
2022-08-26T12:19:01.276Z,33.27
2022-08-26T12:24:04.552Z,33.51
2022-08-26T12:29:20.087Z,33.87
2022-08-26T12:34:28.916Z,33.92
2022-08-26T12:39:33.361Z,33.86
2022-08-26T12:44:53.699Z,34.25
2022-08-26T12:50:07.498Z,33.88
2022-08-26T12:55:27.894Z,33.89
2022-08-26T13:00:33.935Z,33.85
2022-08-26T13:05:36.014Z,33.52
2022-08-26T13:10:40.456Z,33.23
2022-08-26T13:15:42.431Z,33.16
2022-08-26T13:20:44.787Z,33.14
2022-08-26T13:25:46.773Z,33.04
2022-08-26T13:30:49.653Z,32.98
2022-08-26T13:35:51.629Z,32.89
2022-08-26T13:40:53.744Z,32.55
2022-08-26T13:45:55.832Z,32.47
2022-08-26T13:50:57.909Z,32.12
2022-08-26T13:56:01.188Z,32.07
2022-08-26T14:01:03.460Z,32.04
2022-08-26T14:06:05.628Z,32.11
2022-08-26T14:11:07.933Z,31.84
2022-08-26T14:16:26.273Z,32.03
2022-08-26T14:21:34.176Z,32.01
2022-08-26T14:26:36.165Z,31.82
2022-08-26T14:31:38.507Z,31.48
2022-08-26T14:36:40.506Z,31.50
2022-08-26T14:41:53.923Z,31.30
2022-08-26T14:46:57.414Z,31.20
2022-08-26T14:51:59.886Z,31.06
2022-08-26T14:57:03.748Z,31.08
2022-08-26T15:02:07.486Z,30.79
2022-08-26T15:07:09.638Z,30.71
2022-08-26T15:12:14.773Z,30.84
2022-08-26T15:17:16.772Z,31.22
2022-08-26T15:22:18.888Z,31.40
2022-08-26T15:27:21.017Z,31.65
2022-08-26T15:32:23.251Z,31.78
2022-08-26T15:37:25.216Z,31.69
2022-08-26T15:42:27.268Z,31.40
2022-08-26T15:47:29.200Z,31.43
2022-08-26T15:52:31.520Z,31.57
2022-08-26T15:57:33.517Z,31.74
2022-08-26T16:02:35.794Z,31.81
2022-08-26T16:07:38.140Z,31.84
2022-08-26T16:12:40.173Z,31.51
2022-08-26T16:17:42.125Z,31.22
2022-08-26T16:22:44.413Z,31.15
2022-08-26T16:27:46.453Z,31.01
2022-08-26T16:32:49.678Z,30.80
2022-08-26T16:37:52.897Z,30.65
2022-08-26T16:42:55.070Z,30.82
2022-08-26T16:47:57.073Z,30.64
2022-08-26T16:52:59.109Z,30.40
2022-08-26T16:58:01.239Z,30.41
2022-08-26T17:03:04.237Z,30.30
2022-08-26T17:08:06.515Z,30.12
2022-08-26T17:13:08.669Z,29.95
2022-08-26T17:18:11.235Z,29.63
2022-08-26T17:23:13.249Z,29.37
2022-08-26T17:28:15.252Z,29.16
2022-08-26T17:33:21.939Z,28.94
2022-08-26T17:38:29.176Z,28.61
2022-08-26T17:43:31.366Z,28.29
2022-08-26T17:48:33.396Z,27.93
2022-08-26T17:53:35.427Z,27.55
2022-08-26T17:58:38.134Z,27.24
2022-08-26T18:03:40.575Z,26.93
2022-08-26T18:08:42.632Z,26.68
2022-08-26T18:13:47.366Z,26.51
2022-08-26T18:18:53.434Z,26.28
2022-08-26T18:23:56.030Z,26.12
2022-08-26T18:28:58.633Z,25.97
2022-08-26T18:34:02.330Z,25.83
2022-08-26T18:39:05.818Z,25.72
2022-08-26T18:44:13.288Z,25.53
2022-08-26T18:49:16.914Z,25.43
2022-08-26T18:59:29.498Z,25.10
2022-08-26T19:04:32.906Z,24.98
2022-08-26T19:09:35.969Z,24.83
2022-08-26T19:14:38.162Z,24.73
2022-08-26T19:19:40.198Z,24.56
2022-08-26T19:24:42.255Z,24.43
2022-08-26T19:29:47.743Z,24.38
2022-08-26T19:34:51.425Z,24.34
2022-08-26T19:39:53.545Z,24.38
2022-08-26T19:45:07.428Z,24.34
2022-08-26T19:50:14.788Z,24.21
2022-08-26T19:55:18.052Z,24.12
2022-08-26T20:00:26.117Z,23.98
2022-08-26T20:05:28.485Z,23.90
2022-08-26T20:10:30.470Z,23.84
2022-08-26T20:15:33.521Z,23.74
2022-08-26T20:20:53.859Z,23.69
2022-08-26T20:25:57.369Z,23.65
2022-08-26T20:30:59.725Z,23.67
2022-08-26T20:36:02.206Z,23.73
2022-08-26T20:41:09.293Z,23.76
2022-08-26T20:46:17.947Z,23.80
2022-08-26T20:51:23.526Z,23.85
2022-08-26T20:56:25.641Z,23.77
2022-08-26T21:01:30.707Z,23.59
2022-08-26T21:06:33.927Z,23.59
2022-08-26T21:11:38.048Z,23.56
2022-08-26T21:16:41.540Z,23.55
2022-08-26T21:21:44.709Z,23.57
2022-08-26T21:26:46.935Z,23.55
2022-08-26T21:31:49.303Z,23.51
2022-08-26T21:36:51.316Z,23.45
2022-08-26T21:41:53.384Z,23.38
2022-08-26T21:46:55.756Z,23.31
2022-08-26T21:51:57.762Z,23.26
2022-08-26T21:56:59.849Z,23.24
2022-08-26T22:02:02.054Z,23.23
2022-08-26T22:07:05.006Z,23.08
2022-08-26T22:12:10.935Z,23.23
2022-08-26T22:17:13.605Z,23.16
2022-08-26T22:22:16.263Z,23.17
2022-08-26T22:27:18.313Z,23.27
2022-08-26T22:32:20.261Z,23.25
2022-08-26T22:37:22.200Z,23.05
2022-08-26T22:42:24.158Z,22.99
2022-08-26T22:47:26.688Z,23.01
2022-08-26T22:52:28.801Z,22.95
2022-08-26T22:57:31.085Z,22.80
2022-08-26T23:02:33.020Z,22.99
2022-08-26T23:07:35.885Z,22.99
2022-08-26T23:12:38.004Z,22.77
2022-08-26T23:17:40.297Z,22.71
2022-08-26T23:22:42.208Z,22.62
2022-08-26T23:27:44.441Z,22.46
2022-08-26T23:32:46.774Z,22.40
2022-08-26T23:37:53.571Z,22.31
2022-08-26T23:42:59.969Z,22.24
2022-08-26T23:48:02.055Z,22.11
2022-08-26T23:53:07.449Z,21.99
2022-08-26T23:58:09.546Z,21.88
